sensor_id;sensor_type;location;lat;lon;timestamp;P1;durP1;ratioP1;P2;durP2;ratioP2
70800;SDS011;59616;52.170;5.386;2022-08-01T00:00:03;9.15;;;3.67;;
70800;SDS011;59616;52.170;5.386;2022-08-01T00:02:34;9.13;;;3.58;;
70800;SDS011;59616;52.170;5.386;2022-08-01T00:05:03;9.18;;;3.42;;
70800;SDS011;59616;52.170;5.386;2022-08-01T00:07:32;9.52;;;3.63;;
70800;SDS011;59616;52.170;5.386;2022-08-01T00:09:59;8.35;;;3.35;;
70800;SDS011;59616;52.170;5.386;2022-08-01T00:12:26;8.30;;;3.50;;
70800;SDS011;59616;52.170;5.386;2022-08-01T00:14:53;7.90;;;3.25;;
70800;SDS011;59616;52.170;5.386;2022-08-01T00:17:20;8.23;;;3.55;;
70800;SDS011;59616;52.170;5.386;2022-08-01T00:19:46;8.10;;;3.22;;
70800;SDS011;59616;52.170;5.386;2022-08-01T00:22:13;8.38;;;3.30;;
70800;SDS011;59616;52.170;5.386;2022-08-01T00:24:40;8.85;;;3.13;;
70800;SDS011;59616;52.170;5.386;2022-08-01T00:27:07;7.68;;;3.20;;
70800;SDS011;59616;52.170;5.386;2022-08-01T00:29:33;7.97;;;3.15;;
70800;SDS011;59616;52.170;5.386;2022-08-01T00:32:20;9.30;;;3.75;;
70800;SDS011;59616;52.170;5.386;2022-08-01T00:34:47;9.68;;;3.60;;
70800;SDS011;59616;52.170;5.386;2022-08-01T00:37:14;8.63;;;3.60;;
70800;SDS011;59616;52.170;5.386;2022-08-01T00:39:41;8.88;;;3.63;;
70800;SDS011;59616;52.170;5.386;2022-08-01T00:42:09;10.18;;;3.15;;
70800;SDS011;59616;52.170;5.386;2022-08-01T00:44:37;9.02;;;3.40;;
70800;SDS011;59616;52.170;5.386;2022-08-01T00:47:04;9.95;;;3.63;;
70800;SDS011;59616;52.170;5.386;2022-08-01T00:49:32;10.80;;;3.80;;
70800;SDS011;59616;52.170;5.386;2022-08-01T00:51:59;12.27;;;4.32;;
70800;SDS011;59616;52.170;5.386;2022-08-01T00:54:26;9.30;;;3.80;;
70800;SDS011;59616;52.170;5.386;2022-08-01T00:56:54;11.00;;;4.25;;
70800;SDS011;59616;52.170;5.386;2022-08-01T00:59:22;10.70;;;4.38;;
70800;SDS011;59616;52.170;5.386;2022-08-01T01:01:51;10.25;;;4.18;;
70800;SDS011;59616;52.170;5.386;2022-08-01T01:04:19;11.07;;;4.20;;
70800;SDS011;59616;52.170;5.386;2022-08-01T01:12:31;13.07;;;4.70;;
70800;SDS011;59616;52.170;5.386;2022-08-01T01:17:55;10.40;;;3.97;;
70800;SDS011;59616;52.170;5.386;2022-08-01T01:20:37;11.65;;;3.97;;
70800;SDS011;59616;52.170;5.386;2022-08-01T01:23:10;10.70;;;4.20;;
70800;SDS011;59616;52.170;5.386;2022-08-01T01:25:59;12.90;;;4.25;;
70800;SDS011;59616;52.170;5.386;2022-08-01T01:31:26;11.43;;;4.25;;
70800;SDS011;59616;52.170;5.386;2022-08-01T01:33:54;11.25;;;4.32;;
70800;SDS011;59616;52.170;5.386;2022-08-01T01:36:24;10.82;;;4.43;;
70800;SDS011;59616;52.170;5.386;2022-08-01T01:38:52;10.68;;;4.40;;
70800;SDS011;59616;52.170;5.386;2022-08-01T01:41:21;11.77;;;4.50;;
70800;SDS011;59616;52.170;5.386;2022-08-01T01:43:49;11.05;;;4.30;;
70800;SDS011;59616;52.170;5.386;2022-08-01T01:46:19;11.27;;;4.40;;
70800;SDS011;59616;52.170;5.386;2022-08-01T01:48:49;12.38;;;4.68;;
70800;SDS011;59616;52.170;5.386;2022-08-01T01:51:17;12.55;;;4.43;;
70800;SDS011;59616;52.170;5.386;2022-08-01T01:53:48;12.07;;;4.70;;
70800;SDS011;59616;52.170;5.386;2022-08-01T01:56:17;11.73;;;4.57;;
70800;SDS011;59616;52.170;5.386;2022-08-01T01:58:47;11.40;;;4.38;;
70800;SDS011;59616;52.170;5.386;2022-08-01T02:01:17;11.27;;;4.75;;
70800;SDS011;59616;52.170;5.386;2022-08-01T02:04:05;11.48;;;4.35;;
70800;SDS011;59616;52.170;5.386;2022-08-01T02:06:32;11.25;;;4.20;;
70800;SDS011;59616;52.170;5.386;2022-08-01T02:09:00;10.88;;;4.60;;
70800;SDS011;59616;52.170;5.386;2022-08-01T02:11:28;11.55;;;4.85;;
70800;SDS011;59616;52.170;5.386;2022-08-01T02:13:56;11.13;;;4.45;;
70800;SDS011;59616;52.170;5.386;2022-08-01T02:16:31;11.95;;;4.43;;
70800;SDS011;59616;52.170;5.386;2022-08-01T02:19:02;10.48;;;4.05;;
70800;SDS011;59616;52.170;5.386;2022-08-01T02:21:33;13.13;;;5.10;;
70800;SDS011;59616;52.170;5.386;2022-08-01T02:24:14;12.65;;;4.60;;
70800;SDS011;59616;52.170;5.386;2022-08-01T02:26:56;12.70;;;4.70;;
70800;SDS011;59616;52.170;5.386;2022-08-01T02:29:36;10.93;;;4.47;;
70800;SDS011;59616;52.170;5.386;2022-08-01T02:32:08;12.05;;;4.70;;
70800;SDS011;59616;52.170;5.386;2022-08-01T02:34:40;12.98;;;5.07;;
70800;SDS011;59616;52.170;5.386;2022-08-01T02:37:10;13.23;;;4.65;;
70800;SDS011;59616;52.170;5.386;2022-08-01T02:39:37;12.38;;;4.90;;
70800;SDS011;59616;52.170;5.386;2022-08-01T02:42:05;13.43;;;4.70;;
70800;SDS011;59616;52.170;5.386;2022-08-01T02:44:35;11.82;;;4.53;;
70800;SDS011;59616;52.170;5.386;2022-08-01T02:47:05;13.77;;;4.95;;
70800;SDS011;59616;52.170;5.386;2022-08-01T02:49:36;13.05;;;5.05;;
70800;SDS011;59616;52.170;5.386;2022-08-01T02:52:08;12.98;;;5.00;;
70800;SDS011;59616;52.170;5.386;2022-08-01T02:54:38;15.15;;;5.20;;
70800;SDS011;59616;52.170;5.386;2022-08-01T02:57:08;12.88;;;5.25;;
70800;SDS011;59616;52.170;5.386;2022-08-01T02:59:39;13.40;;;5.38;;
70800;SDS011;59616;52.170;5.386;2022-08-01T03:02:10;14.98;;;5.68;;
70800;SDS011;59616;52.170;5.386;2022-08-01T03:04:38;12.18;;;5.07;;
70800;SDS011;59616;52.170;5.386;2022-08-01T03:07:07;13.70;;;5.15;;
70800;SDS011;59616;52.170;5.386;2022-08-01T03:09:39;13.60;;;5.32;;
70800;SDS011;59616;52.170;5.386;2022-08-01T03:12:11;13.25;;;5.30;;
70800;SDS011;59616;52.170;5.386;2022-08-01T03:14:50;12.15;;;5.07;;
70800;SDS011;59616;52.170;5.386;2022-08-01T03:17:20;11.90;;;5.30;;
70800;SDS011;59616;52.170;5.386;2022-08-01T03:19:51;13.35;;;5.38;;
70800;SDS011;59616;52.170;5.386;2022-08-01T03:22:20;13.48;;;5.40;;
70800;SDS011;59616;52.170;5.386;2022-08-01T03:24:50;12.25;;;5.03;;
70800;SDS011;59616;52.170;5.386;2022-08-01T03:27:22;11.57;;;4.80;;
70800;SDS011;59616;52.170;5.386;2022-08-01T03:29:50;13.25;;;5.28;;
70800;SDS011;59616;52.170;5.386;2022-08-01T03:32:20;11.73;;;4.93;;
70800;SDS011;59616;52.170;5.386;2022-08-01T03:34:48;13.38;;;5.30;;
70800;SDS011;59616;52.170;5.386;2022-08-01T03:37:25;13.55;;;5.05;;
70800;SDS011;59616;52.170;5.386;2022-08-01T03:39:55;11.32;;;5.03;;
70800;SDS011;59616;52.170;5.386;2022-08-01T03:42:37;12.77;;;4.72;;
70800;SDS011;59616;52.170;5.386;2022-08-01T03:45:15;11.38;;;4.68;;
70800;SDS011;59616;52.170;5.386;2022-08-01T03:47:47;11.82;;;4.90;;
70800;SDS011;59616;52.170;5.386;2022-08-01T03:50:17;12.45;;;5.03;;
70800;SDS011;59616;52.170;5.386;2022-08-01T03:52:47;13.57;;;4.60;;
70800;SDS011;59616;52.170;5.386;2022-08-01T03:55:16;10.38;;;4.53;;
70800;SDS011;59616;52.170;5.386;2022-08-01T03:57:45;11.48;;;4.57;;
70800;SDS011;59616;52.170;5.386;2022-08-01T04:00:13;12.95;;;5.15;;
70800;SDS011;59616;52.170;5.386;2022-08-01T04:02:47;10.48;;;4.82;;
70800;SDS011;59616;52.170;5.386;2022-08-01T04:05:15;9.70;;;4.13;;
70800;SDS011;59616;52.170;5.386;2022-08-01T04:07:49;11.43;;;4.90;;
70800;SDS011;59616;52.170;5.386;2022-08-01T04:10:22;10.32;;;4.50;;
70800;SDS011;59616;52.170;5.386;2022-08-01T04:12:49;11.27;;;4.68;;
70800;SDS011;59616;52.170;5.386;2022-08-01T04:15:16;11.30;;;4.65;;
70800;SDS011;59616;52.170;5.386;2022-08-01T04:17:44;11.38;;;5.10;;
70800;SDS011;59616;52.170;5.386;2022-08-01T04:20:11;11.18;;;4.88;;
70800;SDS011;59616;52.170;5.386;2022-08-01T04:22:37;11.88;;;4.70;;
70800;SDS011;59616;52.170;5.386;2022-08-01T04:25:07;10.85;;;4.63;;
70800;SDS011;59616;52.170;5.386;2022-08-01T04:27:38;11.38;;;4.70;;
70800;SDS011;59616;52.170;5.386;2022-08-01T04:30:17;11.63;;;4.90;;
70800;SDS011;59616;52.170;5.386;2022-08-01T04:32:56;9.82;;;4.40;;
70800;SDS011;59616;52.170;5.386;2022-08-01T04:35:25;10.75;;;4.43;;
70800;SDS011;59616;52.170;5.386;2022-08-01T04:38:15;9.98;;;4.03;;
70800;SDS011;59616;52.170;5.386;2022-08-01T04:40:45;9.95;;;3.50;;
70800;SDS011;59616;52.170;5.386;2022-08-01T04:43:12;7.93;;;2.90;;
70800;SDS011;59616;52.170;5.386;2022-08-01T04:45:40;7.10;;;2.65;;
70800;SDS011;59616;52.170;5.386;2022-08-01T04:48:10;7.03;;;2.47;;
70800;SDS011;59616;52.170;5.386;2022-08-01T04:50:38;7.28;;;2.58;;
70800;SDS011;59616;52.170;5.386;2022-08-01T04:53:18;5.38;;;2.10;;
70800;SDS011;59616;52.170;5.386;2022-08-01T04:55:48;5.82;;;1.95;;
70800;SDS011;59616;52.170;5.386;2022-08-01T04:58:15;6.50;;;1.90;;
70800;SDS011;59616;52.170;5.386;2022-08-01T05:00:44;7.07;;;2.47;;
70800;SDS011;59616;52.170;5.386;2022-08-01T05:03:11;8.55;;;2.28;;
70800;SDS011;59616;52.170;5.386;2022-08-01T05:05:38;5.43;;;2.10;;
70800;SDS011;59616;52.170;5.386;2022-08-01T05:08:05;5.63;;;1.90;;
70800;SDS011;59616;52.170;5.386;2022-08-01T05:10:32;5.32;;;1.80;;
70800;SDS011;59616;52.170;5.386;2022-08-01T05:12:59;5.25;;;2.00;;
70800;SDS011;59616;52.170;5.386;2022-08-01T05:15:26;5.90;;;2.10;;
70800;SDS011;59616;52.170;5.386;2022-08-01T05:17:53;6.25;;;1.83;;
70800;SDS011;59616;52.170;5.386;2022-08-01T05:20:20;5.85;;;2.33;;
70800;SDS011;59616;52.170;5.386;2022-08-01T05:22:47;6.80;;;2.13;;
70800;SDS011;59616;52.170;5.386;2022-08-01T05:25:14;5.55;;;2.10;;
70800;SDS011;59616;52.170;5.386;2022-08-01T05:27:46;6.03;;;2.20;;
70800;SDS011;59616;52.170;5.386;2022-08-01T05:30:16;5.55;;;2.15;;
70800;SDS011;59616;52.170;5.386;2022-08-01T05:32:43;5.53;;;2.35;;
70800;SDS011;59616;52.170;5.386;2022-08-01T05:35:10;7.30;;;2.33;;
70800;SDS011;59616;52.170;5.386;2022-08-01T05:37:36;7.97;;;2.00;;
70800;SDS011;59616;52.170;5.386;2022-08-01T05:40:04;7.00;;;2.00;;
70800;SDS011;59616;52.170;5.386;2022-08-01T05:42:31;3.92;;;1.92;;
70800;SDS011;59616;52.170;5.386;2022-08-01T05:44:58;5.63;;;1.70;;
70800;SDS011;59616;52.170;5.386;2022-08-01T05:47:25;5.00;;;1.88;;
70800;SDS011;59616;52.170;5.386;2022-08-01T05:49:52;4.68;;;1.58;;
70800;SDS011;59616;52.170;5.386;2022-08-01T05:52:18;4.93;;;1.83;;
70800;SDS011;59616;52.170;5.386;2022-08-01T05:54:45;5.40;;;1.70;;
70800;SDS011;59616;52.170;5.386;2022-08-01T05:57:12;5.25;;;1.73;;
70800;SDS011;59616;52.170;5.386;2022-08-01T05:59:40;5.40;;;1.85;;
70800;SDS011;59616;52.170;5.386;2022-08-01T06:02:07;6.93;;;2.08;;
70800;SDS011;59616;52.170;5.386;2022-08-01T06:04:35;4.80;;;1.83;;
70800;SDS011;59616;52.170;5.386;2022-08-01T06:07:01;4.70;;;1.75;;
70800;SDS011;59616;52.170;5.386;2022-08-01T06:09:28;3.63;;;1.55;;
70800;SDS011;59616;52.170;5.386;2022-08-01T06:11:56;4.43;;;1.88;;
70800;SDS011;59616;52.170;5.386;2022-08-01T06:14:23;5.30;;;2.10;;
70800;SDS011;59616;52.170;5.386;2022-08-01T06:16:50;4.68;;;2.00;;
70800;SDS011;59616;52.170;5.386;2022-08-01T06:19:17;4.75;;;1.70;;
70800;SDS011;59616;52.170;5.386;2022-08-01T06:21:44;5.40;;;1.90;;
70800;SDS011;59616;52.170;5.386;2022-08-01T06:24:10;5.13;;;1.88;;
70800;SDS011;59616;52.170;5.386;2022-08-01T06:26:37;4.43;;;1.90;;
70800;SDS011;59616;52.170;5.386;2022-08-01T06:29:04;6.32;;;2.20;;
70800;SDS011;59616;52.170;5.386;2022-08-01T06:31:31;6.05;;;2.00;;
70800;SDS011;59616;52.170;5.386;2022-08-01T06:33:59;6.60;;;2.10;;
70800;SDS011;59616;52.170;5.386;2022-08-01T06:36:26;6.90;;;2.13;;
70800;SDS011;59616;52.170;5.386;2022-08-01T06:38:52;5.78;;;2.08;;
70800;SDS011;59616;52.170;5.386;2022-08-01T06:41:19;5.00;;;1.92;;
70800;SDS011;59616;52.170;5.386;2022-08-01T06:43:46;5.75;;;2.20;;
70800;SDS011;59616;52.170;5.386;2022-08-01T06:46:13;6.40;;;2.13;;
70800;SDS011;59616;52.170;5.386;2022-08-01T06:48:39;6.53;;;2.10;;
70800;SDS011;59616;52.170;5.386;2022-08-01T06:51:06;5.05;;;1.80;;
70800;SDS011;59616;52.170;5.386;2022-08-01T06:53:39;5.55;;;2.10;;
70800;SDS011;59616;52.170;5.386;2022-08-01T06:56:06;7.57;;;2.67;;
70800;SDS011;59616;52.170;5.386;2022-08-01T06:58:34;6.28;;;2.35;;
70800;SDS011;59616;52.170;5.386;2022-08-01T07:01:02;7.43;;;2.60;;
70800;SDS011;59616;52.170;5.386;2022-08-01T07:03:32;6.50;;;2.45;;
70800;SDS011;59616;52.170;5.386;2022-08-01T07:06:20;5.13;;;1.90;;
70800;SDS011;59616;52.170;5.386;2022-08-01T07:08:48;5.75;;;2.00;;
70800;SDS011;59616;52.170;5.386;2022-08-01T07:11:15;6.97;;;2.00;;
70800;SDS011;59616;52.170;5.386;2022-08-01T07:13:41;4.95;;;2.05;;
70800;SDS011;59616;52.170;5.386;2022-08-01T07:16:14;5.82;;;2.20;;
70800;SDS011;59616;52.170;5.386;2022-08-01T07:18:45;4.53;;;1.85;;
70800;SDS011;59616;52.170;5.386;2022-08-01T07:21:16;5.07;;;1.80;;
70800;SDS011;59616;52.170;5.386;2022-08-01T07:24:06;5.57;;;1.98;;
70800;SDS011;59616;52.170;5.386;2022-08-01T07:26:41;5.82;;;1.80;;
70800;SDS011;59616;52.170;5.386;2022-08-01T07:29:23;6.88;;;2.22;;
70800;SDS011;59616;52.170;5.386;2022-08-01T07:31:58;5.32;;;1.95;;
70800;SDS011;59616;52.170;5.386;2022-08-01T07:34:26;8.75;;;2.47;;
70800;SDS011;59616;52.170;5.386;2022-08-01T07:36:56;7.70;;;2.85;;
70800;SDS011;59616;52.170;5.386;2022-08-01T07:39:28;9.90;;;3.03;;
70800;SDS011;59616;52.170;5.386;2022-08-01T07:42:03;8.68;;;2.95;;
70800;SDS011;59616;52.170;5.386;2022-08-01T07:44:39;14.30;;;3.40;;
70800;SDS011;59616;52.170;5.386;2022-08-01T07:47:09;13.30;;;3.30;;
70800;SDS011;59616;52.170;5.386;2022-08-01T07:49:48;12.32;;;2.90;;
70800;SDS011;59616;52.170;5.386;2022-08-01T07:52:16;11.77;;;2.75;;
70800;SDS011;59616;52.170;5.386;2022-08-01T07:54:47;9.77;;;2.58;;
70800;SDS011;59616;52.170;5.386;2022-08-01T07:57:18;11.73;;;2.97;;
70800;SDS011;59616;52.170;5.386;2022-08-01T07:59:47;23.17;;;4.10;;
70800;SDS011;59616;52.170;5.386;2022-08-01T08:02:29;14.98;;;3.35;;
70800;SDS011;59616;52.170;5.386;2022-08-01T08:04:58;13.30;;;2.58;;
70800;SDS011;59616;52.170;5.386;2022-08-01T08:07:29;13.10;;;3.22;;
70800;SDS011;59616;52.170;5.386;2022-08-01T08:09:59;15.35;;;3.35;;
70800;SDS011;59616;52.170;5.386;2022-08-01T08:12:36;11.98;;;2.80;;
70800;SDS011;59616;52.170;5.386;2022-08-01T08:15:20;12.18;;;2.80;;
70800;SDS011;59616;52.170;5.386;2022-08-01T08:17:51;13.02;;;2.83;;
70800;SDS011;59616;52.170;5.386;2022-08-01T08:20:20;13.68;;;3.05;;
70800;SDS011;59616;52.170;5.386;2022-08-01T08:22:51;13.05;;;3.17;;
70800;SDS011;59616;52.170;5.386;2022-08-01T08:25:18;14.85;;;3.08;;
70800;SDS011;59616;52.170;5.386;2022-08-01T08:27:53;10.50;;;3.17;;
70800;SDS011;59616;52.170;5.386;2022-08-01T08:30:20;13.63;;;2.58;;
70800;SDS011;59616;52.170;5.386;2022-08-01T08:32:47;11.82;;;3.15;;
70800;SDS011;59616;52.170;5.386;2022-08-01T08:35:16;13.75;;;3.13;;
70800;SDS011;59616;52.170;5.386;2022-08-01T08:38:12;9.52;;;2.33;;
70800;SDS011;59616;52.170;5.386;2022-08-01T08:40:42;13.10;;;2.53;;
70800;SDS011;59616;52.170;5.386;2022-08-01T08:43:13;8.32;;;2.38;;
70800;SDS011;59616;52.170;5.386;2022-08-01T08:45:42;13.93;;;3.00;;
70800;SDS011;59616;52.170;5.386;2022-08-01T08:48:28;12.95;;;3.20;;
70800;SDS011;59616;52.170;5.386;2022-08-01T08:51:08;8.45;;;2.30;;
70800;SDS011;59616;52.170;5.386;2022-08-01T08:53:41;8.25;;;2.35;;
70800;SDS011;59616;52.170;5.386;2022-08-01T08:56:12;9.57;;;2.88;;
70800;SDS011;59616;52.170;5.386;2022-08-01T08:58:41;9.10;;;2.60;;
70800;SDS011;59616;52.170;5.386;2022-08-01T09:01:11;11.27;;;2.53;;
70800;SDS011;59616;52.170;5.386;2022-08-01T09:03:39;9.90;;;2.28;;
70800;SDS011;59616;52.170;5.386;2022-08-01T09:06:09;8.05;;;2.38;;
70800;SDS011;59616;52.170;5.386;2022-08-01T09:08:39;7.95;;;1.95;;
70800;SDS011;59616;52.170;5.386;2022-08-01T09:11:10;10.38;;;2.25;;
70800;SDS011;59616;52.170;5.386;2022-08-01T09:14:17;11.85;;;2.35;;
70800;SDS011;59616;52.170;5.386;2022-08-01T09:17:01;9.45;;;2.08;;
70800;SDS011;59616;52.170;5.386;2022-08-01T09:19:55;8.63;;;1.90;;
70800;SDS011;59616;52.170;5.386;2022-08-01T09:22:25;10.57;;;2.22;;
70800;SDS011;59616;52.170;5.386;2022-08-01T09:27:36;12.23;;;2.22;;
70800;SDS011;59616;52.170;5.386;2022-08-01T09:30:15;6.97;;;1.88;;
70800;SDS011;59616;52.170;5.386;2022-08-01T09:32:57;8.50;;;1.58;;
70800;SDS011;59616;52.170;5.386;2022-08-01T09:35:54;8.65;;;1.90;;
70800;SDS011;59616;52.170;5.386;2022-08-01T09:38:25;10.80;;;2.55;;
70800;SDS011;59616;52.170;5.386;2022-08-01T09:40:57;8.82;;;2.42;;
70800;SDS011;59616;52.170;5.386;2022-08-01T09:43:30;6.78;;;1.80;;
70800;SDS011;59616;52.170;5.386;2022-08-01T09:46:10;6.00;;;1.67;;
70800;SDS011;59616;52.170;5.386;2022-08-01T09:49:03;7.93;;;1.40;;
70800;SDS011;59616;52.170;5.386;2022-08-01T09:51:38;5.18;;;1.30;;
70800;SDS011;59616;52.170;5.386;2022-08-01T09:54:30;9.25;;;1.77;;
70800;SDS011;59616;52.170;5.386;2022-08-01T09:57:15;5.07;;;1.27;;
70800;SDS011;59616;52.170;5.386;2022-08-01T09:59:48;5.68;;;1.65;;
70800;SDS011;59616;52.170;5.386;2022-08-01T10:05:07;6.57;;;1.40;;
70800;SDS011;59616;52.170;5.386;2022-08-01T10:07:56;6.22;;;1.50;;
70800;SDS011;59616;52.170;5.386;2022-08-01T10:10:25;5.78;;;1.40;;
70800;SDS011;59616;52.170;5.386;2022-08-01T10:12:55;6.35;;;1.50;;
70800;SDS011;59616;52.170;5.386;2022-08-01T10:15:25;6.43;;;1.48;;
70800;SDS011;59616;52.170;5.386;2022-08-01T10:18:04;8.00;;;1.48;;
70800;SDS011;59616;52.170;5.386;2022-08-01T10:20:51;11.73;;;1.90;;
70800;SDS011;59616;52.170;5.386;2022-08-01T10:23:23;7.75;;;1.88;;
70800;SDS011;59616;52.170;5.386;2022-08-01T10:26:06;8.25;;;1.70;;
70800;SDS011;59616;52.170;5.386;2022-08-01T10:28:34;6.32;;;1.52;;
70800;SDS011;59616;52.170;5.386;2022-08-01T10:31:05;7.70;;;1.73;;
70800;SDS011;59616;52.170;5.386;2022-08-01T10:33:39;5.55;;;1.25;;
70800;SDS011;59616;52.170;5.386;2022-08-01T10:36:19;5.88;;;1.42;;
70800;SDS011;59616;52.170;5.386;2022-08-01T10:38:48;5.85;;;1.50;;
70800;SDS011;59616;52.170;5.386;2022-08-01T10:41:15;8.75;;;1.70;;
70800;SDS011;59616;52.170;5.386;2022-08-01T10:43:44;9.23;;;1.60;;
70800;SDS011;59616;52.170;5.386;2022-08-01T10:46:12;7.03;;;1.98;;
70800;SDS011;59616;52.170;5.386;2022-08-01T10:51:27;5.38;;;1.45;;
70800;SDS011;59616;52.170;5.386;2022-08-01T10:54:15;6.72;;;1.70;;
70800;SDS011;59616;52.170;5.386;2022-08-01T10:56:46;7.22;;;1.60;;
70800;SDS011;59616;52.170;5.386;2022-08-01T10:59:25;9.18;;;1.80;;
70800;SDS011;59616;52.170;5.386;2022-08-01T11:02:13;8.55;;;1.88;;
70800;SDS011;59616;52.170;5.386;2022-08-01T11:05:00;8.88;;;1.70;;
70800;SDS011;59616;52.170;5.386;2022-08-01T11:07:43;8.07;;;1.70;;
70800;SDS011;59616;52.170;5.386;2022-08-01T11:12:58;9.18;;;1.98;;
70800;SDS011;59616;52.170;5.386;2022-08-01T11:15:29;9.80;;;1.95;;
70800;SDS011;59616;52.170;5.386;2022-08-01T11:17:57;10.45;;;1.98;;
70800;SDS011;59616;52.170;5.386;2022-08-01T11:20:27;5.03;;;1.80;;
70800;SDS011;59616;52.170;5.386;2022-08-01T11:28:24;7.97;;;1.83;;
70800;SDS011;59616;52.170;5.386;2022-08-01T11:41:39;6.05;;;1.70;;
70800;SDS011;59616;52.170;5.386;2022-08-01T11:46:50;7.65;;;1.70;;
70800;SDS011;59616;52.170;5.386;2022-08-01T11:52:02;7.15;;;1.52;;
70800;SDS011;59616;52.170;5.386;2022-08-01T11:57:03;5.30;;;1.33;;
70800;SDS011;59616;52.170;5.386;2022-08-01T11:59:42;7.22;;;1.60;;
70800;SDS011;59616;52.170;5.386;2022-08-01T12:02:37;4.80;;;1.48;;
70800;SDS011;59616;52.170;5.386;2022-08-01T12:05:05;6.18;;;1.40;;
70800;SDS011;59616;52.170;5.386;2022-08-01T12:07:40;7.72;;;1.52;;
70800;SDS011;59616;52.170;5.386;2022-08-01T12:10:11;6.88;;;1.67;;
70800;SDS011;59616;52.170;5.386;2022-08-01T12:12:49;6.03;;;1.45;;
70800;SDS011;59616;52.170;5.386;2022-08-01T12:15:21;6.32;;;1.60;;
70800;SDS011;59616;52.170;5.386;2022-08-01T12:17:51;7.13;;;1.45;;
70800;SDS011;59616;52.170;5.386;2022-08-01T12:20:41;5.47;;;1.35;;
70800;SDS011;59616;52.170;5.386;2022-08-01T12:23:22;4.60;;;1.30;;
70800;SDS011;59616;52.170;5.386;2022-08-01T12:25:53;3.78;;;1.08;;
70800;SDS011;59616;52.170;5.386;2022-08-01T12:28:20;7.70;;;1.70;;
70800;SDS011;59616;52.170;5.386;2022-08-01T12:30:47;3.53;;;1.40;;
70800;SDS011;59616;52.170;5.386;2022-08-01T12:33:19;8.52;;;1.50;;
70800;SDS011;59616;52.170;5.386;2022-08-01T12:35:48;6.97;;;1.40;;
70800;SDS011;59616;52.170;5.386;2022-08-01T12:38:19;8.20;;;1.35;;
70800;SDS011;59616;52.170;5.386;2022-08-01T12:40:52;5.68;;;1.27;;
70800;SDS011;59616;52.170;5.386;2022-08-01T12:43:21;5.70;;;1.50;;
70800;SDS011;59616;52.170;5.386;2022-08-01T12:45:54;7.35;;;1.40;;
70800;SDS011;59616;52.170;5.386;2022-08-01T12:48:24;4.28;;;1.17;;
70800;SDS011;59616;52.170;5.386;2022-08-01T12:50:51;2.95;;;1.10;;
70800;SDS011;59616;52.170;5.386;2022-08-01T12:53:20;6.00;;;1.30;;
70800;SDS011;59616;52.170;5.386;2022-08-01T12:55:52;6.93;;;1.30;;
70800;SDS011;59616;52.170;5.386;2022-08-01T12:58:30;6.45;;;1.30;;
70800;SDS011;59616;52.170;5.386;2022-08-01T13:01:10;3.58;;;1.10;;
70800;SDS011;59616;52.170;5.386;2022-08-01T13:03:39;5.35;;;1.20;;
70800;SDS011;59616;52.170;5.386;2022-08-01T13:06:10;5.47;;;1.30;;
70800;SDS011;59616;52.170;5.386;2022-08-01T13:08:40;2.88;;;0.90;;
70800;SDS011;59616;52.170;5.386;2022-08-01T13:11:07;1.80;;;0.90;;
70800;SDS011;59616;52.170;5.386;2022-08-01T13:13:40;4.97;;;1.20;;
70800;SDS011;59616;52.170;5.386;2022-08-01T13:16:18;6.15;;;1.58;;
70800;SDS011;59616;52.170;5.386;2022-08-01T13:19:03;2.90;;;1.40;;
70800;SDS011;59616;52.170;5.386;2022-08-01T13:21:31;7.05;;;1.42;;
70800;SDS011;59616;52.170;5.386;2022-08-01T13:24:22;5.32;;;1.30;;
70800;SDS011;59616;52.170;5.386;2022-08-01T13:26:56;5.25;;;1.40;;
70800;SDS011;59616;52.170;5.386;2022-08-01T13:32:11;3.92;;;1.20;;
70800;SDS011;59616;52.170;5.386;2022-08-01T13:35:05;4.80;;;1.15;;
70800;SDS011;59616;52.170;5.386;2022-08-01T13:37:34;5.10;;;1.30;;
70800;SDS011;59616;52.170;5.386;2022-08-01T13:40:05;5.00;;;1.40;;
70800;SDS011;59616;52.170;5.386;2022-08-01T13:42:34;4.43;;;1.45;;
70800;SDS011;59616;52.170;5.386;2022-08-01T13:45:01;4.95;;;1.27;;
70800;SDS011;59616;52.170;5.386;2022-08-01T13:47:39;4.78;;;1.10;;
70800;SDS011;59616;52.170;5.386;2022-08-01T13:50:27;4.30;;;1.50;;
70800;SDS011;59616;52.170;5.386;2022-08-01T13:52:53;3.38;;;0.90;;
70800;SDS011;59616;52.170;5.386;2022-08-01T13:55:20;2.95;;;1.05;;
70800;SDS011;59616;52.170;5.386;2022-08-01T13:57:47;3.45;;;0.90;;
70800;SDS011;59616;52.170;5.386;2022-08-01T14:00:14;2.00;;;0.88;;
70800;SDS011;59616;52.170;5.386;2022-08-01T14:02:41;1.38;;;0.90;;
70800;SDS011;59616;52.170;5.386;2022-08-01T14:05:08;7.45;;;1.38;;
70800;SDS011;59616;52.170;5.386;2022-08-01T14:07:35;3.15;;;1.08;;
70800;SDS011;59616;52.170;5.386;2022-08-01T14:10:03;3.80;;;1.02;;
70800;SDS011;59616;52.170;5.386;2022-08-01T14:12:46;3.80;;;1.00;;
70800;SDS011;59616;52.170;5.386;2022-08-01T14:15:13;4.47;;;1.15;;
70800;SDS011;59616;52.170;5.386;2022-08-01T14:18:00;3.00;;;1.00;;
70800;SDS011;59616;52.170;5.386;2022-08-01T14:20:27;6.20;;;1.20;;
70800;SDS011;59616;52.170;5.386;2022-08-01T14:22:54;3.95;;;1.20;;
70800;SDS011;59616;52.170;5.386;2022-08-01T14:25:21;2.58;;;1.00;;
70800;SDS011;59616;52.170;5.386;2022-08-01T14:28:08;4.47;;;0.93;;
70800;SDS011;59616;52.170;5.386;2022-08-01T14:30:34;1.80;;;0.85;;
70800;SDS011;59616;52.170;5.386;2022-08-01T14:33:02;1.77;;;0.90;;
70800;SDS011;59616;52.170;5.386;2022-08-01T14:35:28;4.10;;;0.90;;
70800;SDS011;59616;52.170;5.386;2022-08-01T14:38:15;3.72;;;0.93;;
70800;SDS011;59616;52.170;5.386;2022-08-01T14:41:00;5.03;;;1.13;;
70800;SDS011;59616;52.170;5.386;2022-08-01T14:43:29;4.63;;;1.30;;
70800;SDS011;59616;52.170;5.386;2022-08-01T14:45:59;3.83;;;1.05;;
70800;SDS011;59616;52.170;5.386;2022-08-01T14:48:27;4.30;;;1.00;;
70800;SDS011;59616;52.170;5.386;2022-08-01T14:50:56;3.80;;;1.00;;
70800;SDS011;59616;52.170;5.386;2022-08-01T14:53:23;5.35;;;1.10;;
70800;SDS011;59616;52.170;5.386;2022-08-01T14:55:49;3.08;;;1.00;;
70800;SDS011;59616;52.170;5.386;2022-08-01T14:58:16;5.85;;;1.10;;
70800;SDS011;59616;52.170;5.386;2022-08-01T15:00:43;2.83;;;0.90;;
70800;SDS011;59616;52.170;5.386;2022-08-01T15:03:10;8.18;;;1.42;;
70800;SDS011;59616;52.170;5.386;2022-08-01T15:05:37;4.28;;;1.10;;
70800;SDS011;59616;52.170;5.386;2022-08-01T15:08:03;5.30;;;1.15;;
70800;SDS011;59616;52.170;5.386;2022-08-01T15:10:31;3.22;;;0.80;;
70800;SDS011;59616;52.170;5.386;2022-08-01T15:12:58;4.40;;;1.00;;
70800;SDS011;59616;52.170;5.386;2022-08-01T15:15:26;4.93;;;1.20;;
70800;SDS011;59616;52.170;5.386;2022-08-01T15:17:53;6.05;;;1.10;;
70800;SDS011;59616;52.170;5.386;2022-08-01T15:20:20;4.82;;;1.10;;
70800;SDS011;59616;52.170;5.386;2022-08-01T15:22:47;2.10;;;0.80;;
70800;SDS011;59616;52.170;5.386;2022-08-01T15:25:14;2.38;;;1.00;;
70800;SDS011;59616;52.170;5.386;2022-08-01T15:27:41;4.60;;;1.00;;
70800;SDS011;59616;52.170;5.386;2022-08-01T15:30:08;4.22;;;1.00;;
70800;SDS011;59616;52.170;5.386;2022-08-01T15:32:35;3.10;;;1.10;;
70800;SDS011;59616;52.170;5.386;2022-08-01T15:35:02;3.33;;;0.98;;
70800;SDS011;59616;52.170;5.386;2022-08-01T15:37:29;4.10;;;0.80;;
70800;SDS011;59616;52.170;5.386;2022-08-01T15:39:56;6.47;;;1.10;;
70800;SDS011;59616;52.170;5.386;2022-08-01T15:42:23;2.35;;;0.90;;
70800;SDS011;59616;52.170;5.386;2022-08-01T15:44:52;4.03;;;1.00;;
70800;SDS011;59616;52.170;5.386;2022-08-01T15:47:19;3.15;;;0.80;;
70800;SDS011;59616;52.170;5.386;2022-08-01T15:49:47;5.00;;;0.88;;
70800;SDS011;59616;52.170;5.386;2022-08-01T15:52:17;3.00;;;0.93;;
70800;SDS011;59616;52.170;5.386;2022-08-01T15:54:48;3.90;;;1.00;;
70800;SDS011;59616;52.170;5.386;2022-08-01T15:57:15;3.70;;;1.02;;